Grand Princess — ZCBU5 — position and weather

sailwx.info

Track history (hours):
 
Tides and Currents Weather Stations Pressure Air Temp Water Temp Dewpoint Dewpoint Depression Visibility Wind Speed Wind Dir Waves Ship Positions

Grand Princess

Operator: Princess Cruises

Last reported at 2017-Dec-10 14:00 UTC. Time now 2017-Dec-11 13:27 UTC.
Position N 28°54' W 116°24'.

Length 289.5 m; beam 36 m; draft 8.5 m.

Type: Passenger vessel. MMSI: 310327000.

Wind from 040 at 10 knots

Barometer 1018.5 mb
Air temperature 18.0 ° C
Visibility: greater than 10.8 NM
Dewpoint 14.6 ° C
Water temperature 19.0 ° C

Date/timePositionNaut miles runAvg speedWind from/ knotsBaromVisibWave heightAir tempDewpointWater temp
2017-Dec-10 14:00N 28°54' W 116°24'27817.9 040 / 101018.510.8 18.014.619.0
2017-Dec-09 22:26N 32°38' W 119°36'717.3
2017-Dec-09 22:00N 32°44' W 119°41'917.1
2017-Dec-09 21:30N 32°51' W 119°47'917.0
2017-Dec-09 20:57N 32°59' W 119°54'916.7
2017-Dec-09 20:24N 33°06' W 119°60'816.9
2017-Dec-09 19:56N 33°13' W 120°05'716.9
2017-Dec-09 19:30N 33°19' W 120°10'917.1
2017-Dec-09 19:00N 33°26' W 120°17'817.0
2017-Dec-09 18:30N 33°32' W 120°23'917.2
2017-Dec-09 17:58N 33°39' W 120°30'817.1
2017-Dec-09 17:29N 33°45' W 120°36'817.3
2017-Dec-09 17:00N 33°53' W 120°40'917.4
2017-Dec-09 16:29N 34°01' W 120°47'817.0
2017-Dec-09 15:59N 34°08' W 120°52'817.2
2017-Dec-09 15:30N 34°15' W 120°56'917.2
2017-Dec-09 15:00N 34°23' W 121°01'917.5
2017-Dec-09 14:29N 34°31' W 121°06'817.4
2017-Dec-09 14:00N 34°38' W 121°11'18213953.2
2017-Dec-09 14:00N 31°36' W 121°06'190392.6 040 / 141018.010.8 15.011.315.0
2017-Dec-09 13:30N 34°46' W 121°16'917.0
2017-Dec-09 13:00N 34°53' W 121°21'917.2
2017-Dec-09 12:30N 35°01' W 121°26'917.0
2017-Dec-09 12:00N 35°08' W 121°31'816.9
2017-Dec-09 11:30N 35°16' W 121°36'817.0
2017-Dec-09 11:00N 35°23' W 121°41'816.8
2017-Dec-09 10:30N 35°31' W 121°46'816.7
2017-Dec-09 10:00N 35°38' W 121°51'816.8
2017-Dec-09 09:30N 35°45' W 121°55'816.8
2017-Dec-09 09:00N 35°53' W 122°01'816.7
2017-Dec-09 08:30N 35°60' W 122°05'816.7
2017-Dec-09 08:00N 36°07' W 122°11'816.3
2017-Dec-09 07:30N 36°14' W 122°16'816.5
2017-Dec-09 07:00N 36°21' W 122°21'816.8
2017-Dec-09 06:30N 36°29' W 122°25'917.3
2017-Dec-09 06:00N 36°37' W 122°28'917.5
2017-Dec-09 05:30N 36°46' W 122°32'917.7
2017-Dec-09 05:00N 36°54' W 122°36'917.9
2017-Dec-09 04:30N 37°02' W 122°40'917.4
2017-Dec-09 04:00N 37°10' W 122°43'917.1
2017-Dec-09 03:30N 37°19' W 122°44'917.2
2017-Dec-09 03:00N 37°28' W 122°44'917.4
2017-Dec-09 02:30N 37°36' W 122°44'816.2
2017-Dec-09 02:00N 37°44' W 122°43'612.0
2017-Dec-09 01:30N 37°47' W 122°36'815.9
2017-Dec-09 01:00N 37°49' W 122°26'2 3.8
2017-Dec-09 00:28N 37°48' W 122°24'0 0.0
2017-Dec-09 00:00N 37°48' W 122°24'0 0.0
2017-Dec-08 23:30N 37°48' W 122°24'0 0.0
2017-Dec-08 23:00N 37°48' W 122°24'0 0.0
2017-Dec-08 22:27N 37°48' W 122°24'0 0.0
2017-Dec-08 22:00N 37°48' W 122°24'0 0.0
2017-Dec-08 21:29N 37°48' W 122°24'0 0.0
2017-Dec-08 20:59N 37°48' W 122°24'0 0.0
2017-Dec-08 20:29N 37°48' W 122°24'0 0.0
2017-Dec-08 19:59N 37°48' W 122°24'0 0.0
2017-Dec-08 19:28N 37°48' W 122°24'0 0.0
2017-Dec-08 18:55N 37°48' W 122°24'0 0.0
2017-Dec-08 18:28N 37°48' W 122°24'0 0.0
2017-Dec-08 17:58N 37°48' W 122°24'0 0.0
2017-Dec-08 17:28N 37°48' W 122°24'0 0.0
2017-Dec-08 17:00N 37°48' W 122°24'0 0.0
2017-Dec-08 16:30N 37°48' W 122°24'0 0.0
2017-Dec-08 16:00N 37°48' W 122°24'0 0.0
2017-Dec-08 15:30N 37°48' W 122°24'0 0.0
2017-Dec-08 14:59N 37°48' W 122°24'0 0.3
2017-Dec-08 14:30N 37°48' W 122°24'2 3.5
2017-Dec-08 14:01N 37°49' W 122°26'612.5
2017-Dec-08 13:30N 37°47' W 122°34'613.0
2017-Dec-08 13:00N 37°44' W 122°41'611.3
2017-Dec-08 12:30N 37°39' W 122°40'611.4
2017-Dec-08 12:00N 37°33' W 122°40'612.8
2017-Dec-08 11:30N 37°27' W 122°39'713.9
2017-Dec-08 11:00N 37°20' W 122°39'713.9
2017-Dec-08 10:31N 37°13' W 122°38'713.9
2017-Dec-08 10:00N 37°06' W 122°36'815.6
2017-Dec-08 09:30N 36°58' W 122°33'917.0
2017-Dec-08 09:00N 36°51' W 122°29'817.1
2017-Dec-08 08:31N 36°43' W 122°25'917.1
2017-Dec-08 08:01N 36°35' W 122°21'917.4
2017-Dec-08 07:30N 36°27' W 122°16'917.5
2017-Dec-08 07:00N 36°19' W 122°12'917.6
2017-Dec-08 06:30N 36°11' W 122°07'917.8
2017-Dec-08 06:01N 36°03' W 122°03'817.0
2017-Dec-08 05:31N 35°55' W 121°58'816.8
2017-Dec-08 05:00N 35°48' W 121°53'816.6
2017-Dec-08 04:30N 35°41' W 121°49'1019.4
2017-Dec-08 04:00N 35°32' W 121°43'1019.2
2017-Dec-08 03:31N 35°23' W 121°38'1019.3
2017-Dec-08 03:01N 35°15' W 121°32'1019.4
2017-Dec-08 02:31N 35°06' W 121°27'1019.1
2017-Dec-08 02:01N 34°58' W 121°21'3179.7
2017-Dec-08 02:00N 35°00' W 121°24'1326.1 330 / 141024.510.8 17.5 7.716.0
2017-Dec-08 01:31N 34°49' W 121°16'918.9
2017-Dec-08 01:01N 34°41' W 121°11'1019.1
2017-Dec-08 00:30N 34°32' W 121°05'1018.9
2017-Dec-07 23:59N 34°23' W 120°60'1019.2
2017-Dec-07 23:29N 34°15' W 120°55'919.3
2017-Dec-07 23:00N 34°07' W 120°49'1019.5
2017-Dec-07 22:30N 33°58' W 120°44'1019.7
2017-Dec-07 21:59N 33°50' W 120°37'1019.7
2017-Dec-07 21:30N 33°42' W 120°30'1019.4
2017-Dec-07 20:59N 33°34' W 120°23'919.0
2017-Dec-07 20:30N 33°26' W 120°16'1019.6
2017-Dec-07 19:59N 33°18' W 120°10'1019.7
2017-Dec-07 19:30N 33°11' W 120°03'1019.8
2017-Dec-07 19:00N 33°03' W 119°56'1019.8
2017-Dec-07 18:29N 32°54' W 119°49'919.9
2017-Dec-07 18:01N 32°47' W 119°42'1019.8
2017-Dec-07 17:30N 32°39' W 119°35'1019.7
2017-Dec-07 17:01N 32°31' W 119°29'1019.7
2017-Dec-07 16:31N 32°23' W 119°22'1019.5
2017-Dec-07 16:00N 32°15' W 119°15'1219.4
2017-Dec-07 15:25N 32°05' W 119°07'819.4
2017-Dec-07 15:01N 31°59' W 119°02'1019.2
2017-Dec-07 14:30N 31°51' W 118°55'1019.0
2017-Dec-07 14:00N 31°43' W 118°48'919.0
2017-Dec-07 13:31N 31°36' W 118°42'1019.4
2017-Dec-07 13:01N 31°28' W 118°35'1019.2
2017-Dec-07 12:31N 31°20' W 118°29'12118.6
2017-Dec-07 06:00N 29°42' W 117°06'   320 / 141019.5 18.012.718.0
2017-Dec-02 01:00N 21°54' W 108°30'20016.7 350 / 51008.210.8 25.513.729.0
2017-Dec-01 13:00N 23°54' W 111°24'22220.1 010 / 111014.410.8 21.518.321.0
2017-Dec-01 02:00N 26°30' W 114°18'22718.9 310 / 101010.810.8 19.517.021.0
2017-Nov-30 14:00N 29°30' W 116°54'   340 / 31013.2 5.4 17.514.917.0
Track history (hours):
 
Tides and Currents Weather Stations Pressure Air Temp Water Temp Dewpoint Dewpoint Depression Visibility Wind Speed Wind Dir Waves Ship Positions

Grand Princess

Operator: Princess Cruises

Last reported at 2017-Dec-10 14:00 UTC. Time now 2017-Dec-11 13:27 UTC.
Position N 28°54' W 116°24'.

Length 289.5 m; beam 36 m; draft 8.5 m.

Type: Passenger vessel. MMSI: 310327000.

Wind from 040 at 10 knots

Barometer 1018.5 mb
Air temperature 18.0 ° C
Visibility: greater than 10.8 NM
Dewpoint 14.6 ° C
Water temperature 19.0 ° C

Date/timePositionNaut miles runAvg speedWind from/ knotsBaromVisibWave heightAir tempDewpointWater temp
2017-Dec-10 14:00N 28°54' W 116°24'27817.9 040 / 101018.510.8 18.014.619.0
2017-Dec-09 22:26N 32°38' W 119°36'717.3
2017-Dec-09 22:00N 32°44' W 119°41'917.1
2017-Dec-09 21:30N 32°51' W 119°47'917.0
2017-Dec-09 20:57N 32°59' W 119°54'916.7
2017-Dec-09 20:24N 33°06' W 119°60'816.9
2017-Dec-09 19:56N 33°13' W 120°05'716.9
2017-Dec-09 19:30N 33°19' W 120°10'917.1
2017-Dec-09 19:00N 33°26' W 120°17'817.0
2017-Dec-09 18:30N 33°32' W 120°23'917.2
2017-Dec-09 17:58N 33°39' W 120°30'817.1
2017-Dec-09 17:29N 33°45' W 120°36'817.3
2017-Dec-09 17:00N 33°53' W 120°40'917.4
2017-Dec-09 16:29N 34°01' W 120°47'817.0
2017-Dec-09 15:59N 34°08' W 120°52'817.2
2017-Dec-09 15:30N 34°15' W 120°56'917.2
2017-Dec-09 15:00N 34°23' W 121°01'917.5
2017-Dec-09 14:29N 34°31' W 121°06'817.4
2017-Dec-09 14:00N 34°38' W 121°11'18213953.2
2017-Dec-09 14:00N 31°36' W 121°06'190392.6 040 / 141018.010.8 15.011.315.0
2017-Dec-09 13:30N 34°46' W 121°16'917.0
2017-Dec-09 13:00N 34°53' W 121°21'917.2
2017-Dec-09 12:30N 35°01' W 121°26'917.0
2017-Dec-09 12:00N 35°08' W 121°31'816.9
2017-Dec-09 11:30N 35°16' W 121°36'817.0
2017-Dec-09 11:00N 35°23' W 121°41'816.8
2017-Dec-09 10:30N 35°31' W 121°46'816.7
2017-Dec-09 10:00N 35°38' W 121°51'816.8
2017-Dec-09 09:30N 35°45' W 121°55'816.8
2017-Dec-09 09:00N 35°53' W 122°01'816.7
2017-Dec-09 08:30N 35°60' W 122°05'816.7
2017-Dec-09 08:00N 36°07' W 122°11'816.3
2017-Dec-09 07:30N 36°14' W 122°16'816.5
2017-Dec-09 07:00N 36°21' W 122°21'816.8
2017-Dec-09 06:30N 36°29' W 122°25'917.3
2017-Dec-09 06:00N 36°37' W 122°28'917.5
2017-Dec-09 05:30N 36°46' W 122°32'917.7
2017-Dec-09 05:00N 36°54' W 122°36'917.9
2017-Dec-09 04:30N 37°02' W 122°40'917.4
2017-Dec-09 04:00N 37°10' W 122°43'917.1
2017-Dec-09 03:30N 37°19' W 122°44'917.2
2017-Dec-09 03:00N 37°28' W 122°44'917.4
2017-Dec-09 02:30N 37°36' W 122°44'816.2
2017-Dec-09 02:00N 37°44' W 122°43'612.0
2017-Dec-09 01:30N 37°47' W 122°36'815.9
2017-Dec-09 01:00N 37°49' W 122°26'2 3.8
2017-Dec-09 00:28N 37°48' W 122°24'0 0.0
2017-Dec-09 00:00N 37°48' W 122°24'0 0.0
2017-Dec-08 23:30N 37°48' W 122°24'0 0.0
2017-Dec-08 23:00N 37°48' W 122°24'0 0.0
2017-Dec-08 22:27N 37°48' W 122°24'0 0.0
2017-Dec-08 22:00N 37°48' W 122°24'0 0.0
2017-Dec-08 21:29N 37°48' W 122°24'0 0.0
2017-Dec-08 20:59N 37°48' W 122°24'0 0.0
2017-Dec-08 20:29N 37°48' W 122°24'0 0.0
2017-Dec-08 19:59N 37°48' W 122°24'0 0.0
2017-Dec-08 19:28N 37°48' W 122°24'0 0.0
2017-Dec-08 18:55N 37°48' W 122°24'0 0.0
2017-Dec-08 18:28N 37°48' W 122°24'0 0.0
2017-Dec-08 17:58N 37°48' W 122°24'0 0.0
2017-Dec-08 17:28N 37°48' W 122°24'0 0.0
2017-Dec-08 17:00N 37°48' W 122°24'0 0.0
2017-Dec-08 16:30N 37°48' W 122°24'0 0.0
2017-Dec-08 16:00N 37°48' W 122°24'0 0.0
2017-Dec-08 15:30N 37°48' W 122°24'0 0.0
2017-Dec-08 14:59N 37°48' W 122°24'0 0.3
2017-Dec-08 14:30N 37°48' W 122°24'2 3.5
2017-Dec-08 14:01N 37°49' W 122°26'612.5
2017-Dec-08 13:30N 37°47' W 122°34'613.0
2017-Dec-08 13:00N 37°44' W 122°41'611.3
2017-Dec-08 12:30N 37°39' W 122°40'611.4
2017-Dec-08 12:00N 37°33' W 122°40'612.8
2017-Dec-08 11:30N 37°27' W 122°39'713.9
2017-Dec-08 11:00N 37°20' W 122°39'713.9
2017-Dec-08 10:31N 37°13' W 122°38'713.9
2017-Dec-08 10:00N 37°06' W 122°36'815.6
2017-Dec-08 09:30N 36°58' W 122°33'917.0
2017-Dec-08 09:00N 36°51' W 122°29'817.1
2017-Dec-08 08:31N 36°43' W 122°25'917.1
2017-Dec-08 08:01N 36°35' W 122°21'917.4
2017-Dec-08 07:30N 36°27' W 122°16'917.5
2017-Dec-08 07:00N 36°19' W 122°12'917.6
2017-Dec-08 06:30N 36°11' W 122°07'917.8
2017-Dec-08 06:01N 36°03' W 122°03'817.0
2017-Dec-08 05:31N 35°55' W 121°58'816.8
2017-Dec-08 05:00N 35°48' W 121°53'816.6
2017-Dec-08 04:30N 35°41' W 121°49'1019.4
2017-Dec-08 04:00N 35°32' W 121°43'1019.2
2017-Dec-08 03:31N 35°23' W 121°38'1019.3
2017-Dec-08 03:01N 35°15' W 121°32'1019.4
2017-Dec-08 02:31N 35°06' W 121°27'1019.1
2017-Dec-08 02:01N 34°58' W 121°21'3179.7
2017-Dec-08 02:00N 35°00' W 121°24'1326.1 330 / 141024.510.8 17.5 7.716.0
2017-Dec-08 01:31N 34°49' W 121°16'918.9
2017-Dec-08 01:01N 34°41' W 121°11'1019.1
2017-Dec-08 00:30N 34°32' W 121°05'1018.9
2017-Dec-07 23:59N 34°23' W 120°60'1019.2
2017-Dec-07 23:29N 34°15' W 120°55'919.3
2017-Dec-07 23:00N 34°07' W 120°49'1019.5
2017-Dec-07 22:30N 33°58' W 120°44'1019.7
2017-Dec-07 21:59N 33°50' W 120°37'1019.7
2017-Dec-07 21:30N 33°42' W 120°30'1019.4
2017-Dec-07 20:59N 33°34' W 120°23'919.0
2017-Dec-07 20:30N 33°26' W 120°16'1019.6
2017-Dec-07 19:59N 33°18' W 120°10'1019.7
2017-Dec-07 19:30N 33°11' W 120°03'1019.8
2017-Dec-07 19:00N 33°03' W 119°56'1019.8
2017-Dec-07 18:29N 32°54' W 119°49'919.9
2017-Dec-07 18:01N 32°47' W 119°42'1019.8
2017-Dec-07 17:30N 32°39' W 119°35'1019.7
2017-Dec-07 17:01N 32°31' W 119°29'1019.7
2017-Dec-07 16:31N 32°23' W 119°22'1019.5
2017-Dec-07 16:00N 32°15' W 119°15'1219.4
2017-Dec-07 15:25N 32°05' W 119°07'819.4
2017-Dec-07 15:01N 31°59' W 119°02'1019.2
2017-Dec-07 14:30N 31°51' W 118°55'1019.0
2017-Dec-07 14:00N 31°43' W 118°48'919.0
2017-Dec-07 13:31N 31°36' W 118°42'1019.4
2017-Dec-07 13:01N 31°28' W 118°35'1019.2
2017-Dec-07 12:31N 31°20' W 118°29'12118.6
2017-Dec-07 06:00N 29°42' W 117°06'   320 / 141019.5 18.012.718.0
2017-Dec-02 01:00N 21°54' W 108°30'20016.7 350 / 51008.210.8 25.513.729.0
2017-Dec-01 13:00N 23°54' W 111°24'22220.1 010 / 111014.410.8 21.518.321.0
2017-Dec-01 02:00N 26°30' W 114°18'22718.9 310 / 101010.810.8 19.517.021.0
2017-Nov-30 14:00N 29°30' W 116°54'   340 / 31013.2 5.4 17.514.917.0

Dump ship's entire track history